הכול
Richmond Airport (Richmond, Queensland) RCM מזג אוויר
|
Richmond, Queensland (RCM / YRMD)
שמים בהירים
רוחות קלות |
|
28 °C |
RCM Terminal Area Forecast
| Date | Time (AEST) | Flight Rules | Wind Dir. | Speed | Type | Height AGL (ft) | Visibility | Remarks | ||||||
|---|---|---|---|---|---|---|---|---|---|---|---|---|---|---|
Recent RCM METAR history
| Date | Time (AEST) | Flight Rules | Wind Dir. | Speed | Type | Height AGL (ft) | Visibility | Temp (°C) | Temp (°F) | Dew Point (°C) | Dew Point (°F) | Rel. Humid. | Pressure | Density Altitude | Remarks |
|---|---|---|---|---|---|---|---|---|---|---|---|---|---|---|---|
| 04-ספט | 19:00 | VFR | 90° | 6 kt | 10000 meters | 28° | 82° | 1° | 33° | 17% | 1015 mb | 2,183 ft | |||
| 04-ספט | 18:00 | VFR | 70° | 5 kt | 10000 meters | 32° | 89° | -1° | 30° | 12% | 1015 mb | 2,663 ft | |||
| 04-ספט | 17:00 | VFR | 50° | 5 kt | 10000 meters | 34° | 93° | -1° | 30° | 11% | 1015 mb | 2,903 ft | |||
| 04-ספט | 16:00 | VFR | 340° | 9 kt | 10000 meters | 35° | 95° | -2° | 28° | 9% | 1014 mb | 3,053 ft | |||
| 04-ספט | 15:00 | VFR | 60° | 7 kt | 10000 meters | 34° | 93° | -1° | 30° | 11% | 1015 mb | 2,903 ft | |||
| 04-ספט | 14:00 | VFR | 40° | 7 kt | 10000 meters | 34° | 93° | -1° | 30° | 11% | 1016 mb | 2,874 ft | |||
| 04-ספט | 13:00 | VFR | 60° | 9 kt | 10000 meters | 34° | 93° | 2° | 35° | 13% | 1017 mb | 2,844 ft | Wind gusting to 25 KT | ||
| 04-ספט | 12:00 | VFR | 70° | 13 kt | 10000 meters | 33° | 91° | 2° | 35° | 14% | 1019 mb | 2,665 ft | |||
| 04-ספט | 11:00 | VFR | 40° | 12 kt | 10000 meters | 31° | 87° | 4° | 39° | 18% | 1020 mb | 2,395 ft | |||
| 04-ספט | 10:00 | VFR | 30° | 9 kt | 10000 meters | 29° | 84° | 8° | 46° | 27% | 1021 mb | 2,126 ft | |||
| 04-ספט | 09:00 | VFR | 40° | 9 kt | 10000 meters | 26° | 78° | 9° | 48° | 34% | 1021 mb | 1,766 ft | |||
| 04-ספט | 08:00 | VFR | 50° | 7 kt | 10000 meters | 20° | 68° | 9° | 48° | 49% | 1020 mb | 1,075 ft | |||
| 04-ספט | 07:00 | VFR | 70° | 5 kt | 10000 meters | 15° | 59° | 7° | 44° | 59% | 1020 mb | 475 ft | |||
| 04-ספט | 06:00 | VFR | 80° | 8 kt | 10000 meters | 14° | 57° | 6° | 42° | 58% | 1019 mb | 385 ft | |||
| 04-ספט | 05:00 | VFR | 80° | 6 kt | 10000 meters | 16° | 60° | 5° | 41° | 48% | 1018 mb | 654 ft | |||
| 04-ספט | 04:00 | VFR | 50° | 6 kt | 10000 meters | 17° | 62° | 5° | 41° | 45% | 1018 mb | 774 ft | |||
| 04-ספט | 03:00 | VFR | 60° | 7 kt | 10000 meters | 17° | 62° | 4° | 39° | 42% | 1018 mb | 774 ft | |||
| 04-ספט | 02:00 | VFR | 80° | 5 kt | 10000 meters | 17° | 62° | 4° | 39° | 42% | 1018 mb | 774 ft | |||
| 04-ספט | 01:00 | VFR | 90° | 6 kt | 10000 meters | 19° | 66° | 4° | 39° | 37% | 1018 mb | 1,014 ft | |||
| 04-ספט | 00:00 | VFR | 90° | 7 kt | 10000 meters | 20° | 68° | 4° | 39° | 35% | 1019 mb | 1,105 ft | |||
| 03-ספט | 23:00 | VFR | 100° | 9 kt | 10000 meters | 21° | 69° | 4° | 39° | 33% | 1018 mb | 1,254 ft | |||
| 03-ספט | 22:00 | VFR | 90° | 8 kt | 10000 meters | 22° | 71° | 3° | 37° | 29% | 1018 mb | 1,374 ft | |||
| 03-ספט | 21:00 | VFR | 100° | 9 kt | 10000 meters | 24° | 75° | 2° | 35° | 24% | 1018 mb | 1,614 ft | |||
| 03-ספט | 20:00 | VFR | 120° | 9 kt | 10000 meters | 25° | 77° | 2° | 35° | 22% | 1017 mb | 1,764 ft |
כניסה לאתר
| אין תמיכה בדפדפן שלך. שדרג את הדפדפן שלך |
